Terminal Aerodrome Forecast
Issued by NWS

Home | Current Version | Previous Version | Text Only | Print | Product List | Glossary On
Versions: 1 2 3 4 5 6 7 8 9 10 11 12 13 14 15 16 17 18 19 20 21 22 23 24 25 26 27 28 29 30 31 32 33 34 35 36 37 38 39 40
000
FTUS43 KDMX 230538
TAFMCW
TAF
KMCW 230538Z 2306/2406 29004KT P6SM FEW050
     FM230700 VRB03KT 5SM BR FEW180
     FM231300 31007KT P6SM FEW180
     FM240100 35008KT P6SM FEW140=

USA.gov is the U.S. government's official web portal to all federal, state and local government web resources and services.